createdAt,value
2017-12-27T00:03:02.838Z,4.10
2017-12-27T00:04:15.582Z,2.30
2017-12-27T00:05:27.054Z,2.15
2017-12-27T00:06:53.066Z,2.45
2017-12-27T00:08:31.707Z,2.17
2017-12-27T00:10:02.089Z,2.22
2017-12-27T00:11:13.895Z,2.75
2017-12-27T00:12:43.018Z,2.70
2017-12-27T00:14:11.741Z,2.90
2017-12-27T00:15:24.513Z,3.58
2017-12-27T00:16:36.163Z,1.90
2017-12-27T00:17:47.721Z,2.28
2017-12-27T00:19:02.418Z,1.70
2017-12-27T00:20:14.054Z,1.80
2017-12-27T00:21:25.578Z,1.62
2017-12-27T00:22:37.350Z,1.80
2017-12-27T00:23:51.803Z,1.83
2017-12-27T00:25:03.865Z,3.87
2017-12-27T00:26:15.500Z,1.83
2017-12-27T00:27:27.195Z,2.87
2017-12-27T00:28:38.797Z,2.37
2017-12-27T00:29:54.282Z,2.87
2017-12-27T00:31:05.925Z,2.40
2017-12-27T00:32:15.323Z,2.78
2017-12-27T00:33:21.532Z,1.95
2017-12-27T00:34:27.693Z,2.78
2017-12-27T00:35:35.158Z,2.47
2017-12-27T00:36:46.203Z,2.05
2017-12-27T00:37:52.481Z,3.30
2017-12-27T00:39:00.502Z,3.00
2017-12-27T00:40:06.677Z,2.30
2017-12-27T00:41:12.880Z,1.85
2017-12-27T00:42:19.086Z,1.83
2017-12-27T00:43:25.253Z,1.92
2017-12-27T00:44:31.233Z,2.92
2017-12-27T00:45:37.439Z,2.20
2017-12-27T00:46:43.622Z,2.30
2017-12-27T00:47:49.772Z,2.30
2017-12-27T00:48:55.648Z,2.45
2017-12-27T00:50:01.844Z,2.10
2017-12-27T00:51:08.043Z,2.05
2017-12-27T00:52:14.280Z,2.65
2017-12-27T00:53:20.544Z,2.58
2017-12-27T00:54:27.363Z,2.03
2017-12-27T00:55:34.063Z,1.95
2017-12-27T00:56:40.247Z,4.55
2017-12-27T00:57:46.714Z,2.20
2017-12-27T00:58:52.972Z,2.62
2017-12-27T00:59:59.152Z,3.22
2017-12-27T01:01:05.354Z,1.92
2017-12-27T01:02:11.631Z,2.30
2017-12-27T01:03:18.066Z,2.60
2017-12-27T01:04:24.552Z,1.90
2017-12-27T01:05:30.842Z,2.42
2017-12-27T01:06:37.014Z,5.70
2017-12-27T01:07:43.219Z,2.17
2017-12-27T01:08:49.383Z,3.30
2017-12-27T01:09:55.649Z,1.85
2017-12-27T01:11:01.562Z,2.30
2017-12-27T01:12:07.470Z,3.45
2017-12-27T01:13:13.724Z,2.50
2017-12-27T01:14:19.649Z,2.83
2017-12-27T01:15:27.574Z,1.60
2017-12-27T01:16:33.803Z,2.40
2017-12-27T01:17:40.002Z,2.10
2017-12-27T01:18:46.330Z,2.10
2017-12-27T01:19:52.744Z,4.37
2017-12-27T01:20:58.915Z,1.60
2017-12-27T01:22:04.858Z,2.47
2017-12-27T01:23:10.738Z,2.15
2017-12-27T01:24:16.904Z,3.03
2017-12-27T01:25:23.153Z,2.10
2017-12-27T01:26:29.384Z,2.37
2017-12-27T01:27:35.544Z,2.00
2017-12-27T01:28:43.650Z,2.62
2017-12-27T01:29:49.883Z,1.62
2017-12-27T01:30:56.050Z,2.75
2017-12-27T01:32:01.958Z,1.65
2017-12-27T01:33:08.134Z,2.35
2017-12-27T01:34:14.390Z,1.65
2017-12-27T01:35:20.781Z,2.80
2017-12-27T01:36:26.981Z,1.70
2017-12-27T01:37:33.330Z,2.00
2017-12-27T01:38:39.503Z,2.03
2017-12-27T01:39:45.666Z,1.60
2017-12-27T01:40:51.822Z,1.73
2017-12-27T01:41:58.053Z,1.80
2017-12-27T01:43:04.227Z,1.55
2017-12-27T01:44:10.441Z,4.45
2017-12-27T01:45:16.641Z,3.55
2017-12-27T01:46:22.821Z,3.70
2017-12-27T01:47:28.994Z,2.30
2017-12-27T01:48:35.176Z,4.12
2017-12-27T01:49:41.395Z,1.60
2017-12-27T01:50:47.109Z,4.62
2017-12-27T01:51:52.867Z,2.12
2017-12-27T01:52:59.046Z,3.08
2017-12-27T01:54:05.226Z,1.60
2017-12-27T01:55:11.218Z,3.30
2017-12-27T01:56:17.455Z,2.10
2017-12-27T01:57:23.198Z,2.97
2017-12-27T01:58:29.399Z,2.12
2017-12-27T01:59:35.369Z,1.50
2017-12-27T02:00:41.574Z,2.80
2017-12-27T02:01:46.410Z,4.72
2017-12-27T02:02:52.829Z,1.60
2017-12-27T02:03:58.725Z,1.70
2017-12-27T02:05:04.631Z,3.37
2017-12-27T02:06:10.844Z,2.62
2017-12-27T02:07:17.045Z,1.45
2017-12-27T02:08:23.169Z,1.87
2017-12-27T02:09:29.349Z,1.95
2017-12-27T02:10:35.564Z,1.65
2017-12-27T02:11:41.515Z,1.62
2017-12-27T02:12:47.570Z,4.03
2017-12-27T02:13:58.804Z,1.52
2017-12-27T02:15:04.835Z,3.30
2017-12-27T02:16:10.831Z,1.62
2017-12-27T02:17:17.019Z,1.80
2017-12-27T02:18:23.198Z,3.40
2017-12-27T02:19:29.646Z,2.00
2017-12-27T02:20:35.811Z,1.95
2017-12-27T02:21:41.984Z,2.47
2017-12-27T02:22:48.259Z,2.30
2017-12-27T02:23:57.313Z,2.62
2017-12-27T02:25:03.570Z,1.80
2017-12-27T02:26:09.757Z,1.67
2017-12-27T02:27:15.970Z,4.03
2017-12-27T02:28:22.158Z,1.33
2017-12-27T02:29:28.129Z,1.73
2017-12-27T02:30:34.558Z,1.85
2017-12-27T02:31:40.729Z,2.10
2017-12-27T02:32:46.944Z,2.55
2017-12-27T02:33:53.182Z,1.92
2017-12-27T02:34:59.468Z,2.25
2017-12-27T02:36:05.547Z,1.58
2017-12-27T02:37:11.749Z,2.45
2017-12-27T02:38:17.225Z,1.65
2017-12-27T02:39:29.053Z,1.98
2017-12-27T02:40:35.004Z,2.00
2017-12-27T02:41:41.002Z,2.53
2017-12-27T02:42:46.384Z,1.62
2017-12-27T02:43:52.788Z,1.73
2017-12-27T02:44:59.018Z,1.80
2017-12-27T02:46:04.973Z,2.10
2017-12-27T02:47:11.183Z,1.62
2017-12-27T02:48:17.407Z,1.50
2017-12-27T02:49:23.589Z,2.10
2017-12-27T02:50:29.804Z,1.73
2017-12-27T02:51:36.052Z,2.20
2017-12-27T02:52:42.210Z,2.15
2017-12-27T02:53:48.825Z,1.60
2017-12-27T02:54:55.045Z,1.10
2017-12-27T02:56:01.257Z,1.52
2017-12-27T02:57:07.490Z,1.58
2017-12-27T02:58:13.710Z,1.55
2017-12-27T02:59:19.903Z,1.42
2017-12-27T03:00:26.133Z,1.37
2017-12-27T03:01:32.136Z,1.77
2017-12-27T03:02:38.083Z,1.90
2017-12-27T03:03:44.258Z,2.12
2017-12-27T03:04:50.463Z,2.12
2017-12-27T03:05:58.118Z,2.67
2017-12-27T03:07:04.007Z,4.07
2017-12-27T03:08:10.169Z,3.75
2017-12-27T03:09:16.380Z,2.00
2017-12-27T03:10:22.292Z,2.70
2017-12-27T03:11:28.519Z,5.22
2017-12-27T03:12:34.542Z,2.72
2017-12-27T03:13:40.730Z,1.70
2017-12-27T03:14:46.968Z,2.45
2017-12-27T03:15:53.228Z,1.67
2017-12-27T03:16:59.396Z,2.72
2017-12-27T03:18:05.612Z,1.70
2017-12-27T03:19:11.816Z,3.62
2017-12-27T03:20:18.134Z,4.25
2017-12-27T03:21:24.367Z,1.98
2017-12-27T03:22:30.308Z,1.65
2017-12-27T03:23:36.460Z,1.10
2017-12-27T03:24:42.649Z,2.47
2017-12-27T03:25:48.870Z,2.30
2017-12-27T03:26:55.114Z,3.30
2017-12-27T03:28:01.373Z,2.22
2017-12-27T03:29:07.586Z,2.05
2017-12-27T03:30:13.755Z,1.40
2017-12-27T03:31:19.701Z,1.58
2017-12-27T03:32:25.917Z,1.40
2017-12-27T03:33:32.165Z,1.40
2017-12-27T03:34:38.357Z,4.00
2017-12-27T03:35:44.305Z,3.90
2017-12-27T03:36:50.503Z,1.45
2017-12-27T03:37:56.725Z,2.87
2017-12-27T03:39:04.288Z,1.77
2017-12-27T03:40:10.489Z,2.78
2017-12-27T03:41:16.653Z,2.65
2017-12-27T03:42:22.878Z,1.15
2017-12-27T03:43:29.174Z,1.87
2017-12-27T03:44:35.315Z,2.00
2017-12-27T03:45:41.537Z,3.85
2017-12-27T03:46:47.754Z,2.33
2017-12-27T03:47:53.989Z,1.40
2017-12-27T03:49:00.157Z,2.03
2017-12-27T03:50:06.639Z,1.87
2017-12-27T03:51:13.128Z,2.85
2017-12-27T03:52:20.182Z,1.40
2017-12-27T03:53:26.393Z,1.55
2017-12-27T03:54:37.416Z,4.15
2017-12-27T03:55:43.665Z,1.45
2017-12-27T03:56:49.853Z,1.20
2017-12-27T03:57:56.014Z,1.60
2017-12-27T03:59:02.249Z,1.45
2017-12-27T04:00:08.423Z,1.15
2017-12-27T04:01:19.693Z,1.83
2017-12-27T04:02:25.890Z,1.23
2017-12-27T04:03:36.962Z,1.83
2017-12-27T04:04:44.362Z,1.62
2017-12-27T04:05:50.334Z,1.17
2017-12-27T04:06:56.773Z,1.27
2017-12-27T04:08:02.939Z,1.55
2017-12-27T04:09:09.160Z,3.87
2017-12-27T04:10:15.359Z,3.00
2017-12-27T04:11:21.630Z,2.65
2017-12-27T04:12:29.708Z,1.60
2017-12-27T04:13:35.866Z,3.87
2017-12-27T04:14:42.096Z,2.78
2017-12-27T04:15:48.382Z,3.45
2017-12-27T04:16:54.616Z,2.85
2017-12-27T04:18:00.836Z,3.28
2017-12-27T04:19:07.042Z,4.62
2017-12-27T04:20:13.331Z,2.00
2017-12-27T04:21:19.589Z,3.47
2017-12-27T04:22:25.782Z,1.67
2017-12-27T04:23:31.990Z,2.15
2017-12-27T04:24:38.177Z,2.20
2017-12-27T04:25:49.434Z,1.60
2017-12-27T04:26:55.656Z,1.62
2017-12-27T04:28:01.886Z,2.70
2017-12-27T04:29:08.066Z,1.75
2017-12-27T04:30:14.228Z,2.17
2017-12-27T04:31:20.423Z,3.50
2017-12-27T04:32:28.472Z,3.15
2017-12-27T04:33:34.705Z,2.20
2017-12-27T04:34:40.668Z,2.65
2017-12-27T04:35:46.848Z,2.15
2017-12-27T04:36:53.109Z,2.30
2017-12-27T04:37:59.338Z,2.83
2017-12-27T04:39:04.897Z,2.40
2017-12-27T04:40:11.081Z,2.47
2017-12-27T04:41:17.303Z,3.03
2017-12-27T04:42:23.533Z,3.03
2017-12-27T04:43:29.834Z,3.85
2017-12-27T04:44:36.004Z,2.65
2017-12-27T04:45:42.234Z,3.10
2017-12-27T04:46:49.286Z,3.03
2017-12-27T04:47:55.453Z,3.50
2017-12-27T04:49:02.404Z,3.12
2017-12-27T04:50:08.644Z,2.50
2017-12-27T04:51:14.883Z,2.28
2017-12-27T04:52:21.088Z,3.22
2017-12-27T04:53:27.064Z,3.87
2017-12-27T04:54:33.346Z,3.15
2017-12-27T04:55:39.542Z,2.92
2017-12-27T04:56:45.537Z,4.35
2017-12-27T04:57:52.813Z,4.00
2017-12-27T04:58:58.984Z,3.87
2017-12-27T05:00:06.323Z,2.75
2017-12-27T05:01:12.257Z,4.72
2017-12-27T05:02:18.795Z,3.50
2017-12-27T05:03:24.983Z,4.28
2017-12-27T05:04:31.171Z,3.55
2017-12-27T05:05:37.408Z,3.60
2017-12-27T05:06:43.611Z,4.35
2017-12-27T05:07:49.965Z,3.62
2017-12-27T05:08:57.699Z,3.33
2017-12-27T05:10:04.071Z,3.30
2017-12-27T05:11:10.055Z,3.35
2017-12-27T05:12:16.266Z,3.17
2017-12-27T05:13:22.414Z,3.25
2017-12-27T05:14:28.406Z,2.85
2017-12-27T05:15:34.454Z,3.62
2017-12-27T05:16:40.694Z,2.67
2017-12-27T05:17:46.899Z,3.12
2017-12-27T05:18:53.086Z,3.62
2017-12-27T05:19:59.266Z,3.35
2017-12-27T05:21:04.972Z,3.92
2017-12-27T05:22:11.199Z,3.33
2017-12-27T05:23:16.943Z,3.47
2017-12-27T05:24:23.162Z,3.40
2017-12-27T05:25:29.354Z,3.55
2017-12-27T05:26:35.463Z,3.90
2017-12-27T05:27:41.665Z,6.22
2017-12-27T05:28:47.450Z,4.15
2017-12-27T05:29:54.415Z,3.87
2017-12-27T05:31:01.498Z,6.72
2017-12-27T05:32:07.524Z,5.95
2017-12-27T05:33:13.689Z,4.30
2017-12-27T05:34:19.849Z,5.05
2017-12-27T05:35:26.177Z,4.28
2017-12-27T05:36:32.599Z,5.57
2017-12-27T05:37:38.782Z,4.87
2017-12-27T05:38:44.941Z,4.50
2017-12-27T05:39:51.196Z,4.35
2017-12-27T05:40:57.505Z,4.47
2017-12-27T05:42:03.708Z,5.40
2017-12-27T05:43:09.925Z,4.95
2017-12-27T05:44:16.129Z,4.25
2017-12-27T05:45:22.340Z,5.15
2017-12-27T05:46:28.555Z,5.03
2017-12-27T05:47:34.786Z,5.05
2017-12-27T05:48:41.017Z,4.55
2017-12-27T05:49:47.223Z,4.80
2017-12-27T05:50:53.611Z,4.90
2017-12-27T05:52:00.854Z,6.82
2017-12-27T05:53:07.142Z,5.47
2017-12-27T05:54:13.307Z,5.43
2017-12-27T05:55:19.271Z,5.03
2017-12-27T05:56:25.491Z,4.97
2017-12-27T05:57:31.502Z,6.70
2017-12-27T05:58:37.811Z,7.37
2017-12-27T05:59:43.966Z,5.50
2017-12-27T06:00:50.143Z,5.82
2017-12-27T06:01:56.304Z,5.40
2017-12-27T06:03:02.704Z,5.85
2017-12-27T06:04:08.956Z,6.40
2017-12-27T06:05:15.289Z,6.12
2017-12-27T06:06:21.522Z,5.82
2017-12-27T06:07:28.557Z,4.70
2017-12-27T06:08:34.710Z,5.75
2017-12-27T06:09:40.876Z,7.35
2017-12-27T06:10:47.113Z,6.18
2017-12-27T06:11:53.359Z,7.32
2017-12-27T06:12:59.501Z,6.18
2017-12-27T06:14:05.726Z,6.22
2017-12-27T06:15:11.910Z,6.65
2017-12-27T06:16:23.065Z,6.20
2017-12-27T06:17:29.487Z,5.93
2017-12-27T06:18:35.713Z,5.47
2017-12-27T06:19:41.976Z,5.90
2017-12-27T06:20:48.211Z,5.97
2017-12-27T06:21:54.461Z,6.05
2017-12-27T06:23:00.763Z,5.75
2017-12-27T06:24:06.786Z,5.72
2017-12-27T06:25:12.973Z,5.87
2017-12-27T06:26:18.955Z,5.68
2017-12-27T06:27:25.219Z,6.28
2017-12-27T06:28:31.440Z,5.65
2017-12-27T06:29:37.680Z,6.43
2017-12-27T06:30:45.064Z,6.15
2017-12-27T06:31:51.274Z,6.10
2017-12-27T06:32:57.434Z,6.10
2017-12-27T06:34:03.595Z,9.38
2017-12-27T06:35:09.813Z,6.65
2017-12-27T06:36:16.071Z,6.50
2017-12-27T06:37:22.249Z,5.80
2017-12-27T06:38:28.414Z,5.95
2017-12-27T06:39:34.592Z,6.87
2017-12-27T06:40:40.968Z,6.37
2017-12-27T06:41:47.188Z,5.55
2017-12-27T06:42:53.499Z,6.43
2017-12-27T06:43:59.818Z,6.87
2017-12-27T06:45:06.057Z,5.35
2017-12-27T06:46:12.368Z,6.30
2017-12-27T06:47:18.672Z,7.43
2017-12-27T06:48:24.813Z,7.35
2017-12-27T06:49:31.014Z,5.68
2017-12-27T06:50:37.273Z,8.50
2017-12-27T06:51:44.893Z,4.72
2017-12-27T06:52:51.334Z,7.03
2017-12-27T06:53:57.569Z,5.28
2017-12-27T06:55:05.712Z,6.95
2017-12-27T06:56:12.654Z,6.70
2017-12-27T06:57:18.888Z,5.50
2017-12-27T06:58:25.110Z,5.50
2017-12-27T06:59:31.631Z,5.55
2017-12-27T07:00:37.815Z,5.15
2017-12-27T07:01:45.087Z,7.00
2017-12-27T07:02:51.312Z,5.20
2017-12-27T07:03:57.504Z,5.25
2017-12-27T07:05:03.689Z,5.60
2017-12-27T07:06:09.933Z,5.68
2017-12-27T07:07:16.141Z,6.28
2017-12-27T07:08:22.408Z,5.55
2017-12-27T07:09:28.651Z,5.15
2017-12-27T07:10:34.964Z,5.25
2017-12-27T07:11:41.202Z,8.70
2017-12-27T07:12:48.365Z,7.20
2017-12-27T07:13:54.609Z,6.05
2017-12-27T07:15:00.802Z,5.28
2017-12-27T07:16:07.037Z,6.40
2017-12-27T07:17:13.491Z,5.25
2017-12-27T07:18:19.785Z,7.57
2017-12-27T07:19:25.969Z,5.72
2017-12-27T07:20:36.761Z,5.22
2017-12-27T07:21:43.888Z,5.35
2017-12-27T07:22:50.065Z,5.45
2017-12-27T07:23:56.372Z,5.18
2017-12-27T07:25:06.445Z,4.90
2017-12-27T07:26:12.589Z,5.55
2017-12-27T07:27:18.635Z,6.35
2017-12-27T07:28:24.798Z,5.20
2017-12-27T07:29:31.206Z,6.43
2017-12-27T07:30:37.685Z,5.65
2017-12-27T07:31:45.892Z,6.25
2017-12-27T07:32:52.074Z,6.12
2017-12-27T07:33:58.534Z,5.20
2017-12-27T07:35:04.685Z,6.78
2017-12-27T07:36:10.874Z,6.68
2017-12-27T07:37:16.893Z,7.22
2017-12-27T07:38:28.952Z,6.50
2017-12-27T07:39:35.167Z,5.62
2017-12-27T07:40:41.163Z,6.62
2017-12-27T07:41:50.821Z,6.47
2017-12-27T07:42:57.234Z,7.20
2017-12-27T07:44:03.505Z,5.12
2017-12-27T07:45:09.740Z,5.65
2017-12-27T07:46:16.284Z,5.37
2017-12-27T07:47:22.416Z,4.80
2017-12-27T07:48:28.789Z,5.32
2017-12-27T07:49:34.805Z,5.05
2017-12-27T07:50:41.041Z,7.18
2017-12-27T07:51:47.175Z,5.57
2017-12-27T07:52:53.606Z,6.25
2017-12-27T07:53:59.809Z,5.00
2017-12-27T07:55:06.471Z,4.35
2017-12-27T07:56:12.689Z,5.95
2017-12-27T07:57:18.686Z,4.53
2017-12-27T07:58:24.827Z,4.30
2017-12-27T07:59:31.058Z,5.45
2017-12-27T08:00:37.232Z,7.97
2017-12-27T08:01:45.432Z,4.18
2017-12-27T08:02:51.561Z,4.50
2017-12-27T08:03:57.822Z,4.25
2017-12-27T08:05:04.008Z,4.55
2017-12-27T08:06:10.979Z,3.60
2017-12-27T08:07:17.477Z,5.30
2017-12-27T08:08:23.819Z,4.87
2017-12-27T08:09:30.602Z,5.20
2017-12-27T08:10:36.818Z,3.45
2017-12-27T08:11:43.063Z,4.82
2017-12-27T08:12:50.142Z,6.85
2017-12-27T08:13:56.496Z,3.53
2017-12-27T08:15:02.855Z,3.53
2017-12-27T08:16:09.270Z,4.93
2017-12-27T08:17:15.515Z,3.58
2017-12-27T08:18:21.760Z,3.40
2017-12-27T08:19:27.919Z,2.95
2017-12-27T08:20:34.090Z,3.17
2017-12-27T08:21:41.535Z,4.53
2017-12-27T08:22:47.840Z,2.87
2017-12-27T08:23:54.151Z,3.28
2017-12-27T08:25:00.173Z,3.12
2017-12-27T08:26:06.382Z,4.30
2017-12-27T08:27:12.609Z,3.15
2017-12-27T08:28:18.804Z,3.50
2017-12-27T08:29:25.503Z,3.62
2017-12-27T08:30:31.482Z,5.82
2017-12-27T08:31:51.936Z,3.65
2017-12-27T08:33:02.614Z,3.12
2017-12-27T08:34:08.834Z,6.18
2017-12-27T08:35:15.025Z,4.07
2017-12-27T08:36:21.256Z,3.90
2017-12-27T08:37:27.456Z,3.70
2017-12-27T08:38:33.945Z,2.95
2017-12-27T08:39:40.182Z,3.35
2017-12-27T08:40:46.992Z,4.00
2017-12-27T08:41:53.212Z,5.05
2017-12-27T08:42:59.354Z,3.40
2017-12-27T08:44:05.661Z,9.68
2017-12-27T08:45:12.145Z,5.07
2017-12-27T08:46:18.299Z,3.03
2017-12-27T08:47:24.850Z,3.67
2017-12-27T08:48:31.164Z,6.07
2017-12-27T08:49:37.679Z,4.18
2017-12-27T08:50:45.637Z,2.97
2017-12-27T08:51:51.852Z,4.30
2017-12-27T08:52:58.923Z,3.70
2017-12-27T08:54:05.094Z,3.47
2017-12-27T08:55:11.315Z,4.50
2017-12-27T08:56:17.698Z,4.20
2017-12-27T08:57:23.932Z,3.20
2017-12-27T08:58:33.954Z,3.70
2017-12-27T08:59:40.090Z,3.58
2017-12-27T09:00:46.364Z,5.50
2017-12-27T09:01:52.660Z,5.78
2017-12-27T09:02:59.137Z,4.60
2017-12-27T09:04:05.524Z,3.50
2017-12-27T09:05:11.934Z,6.22
2017-12-27T09:06:18.207Z,3.70
2017-12-27T09:07:24.414Z,3.53
2017-12-27T09:08:30.631Z,5.28
2017-12-27T09:09:36.666Z,3.78
2017-12-27T09:10:43.041Z,3.87
2017-12-27T09:11:49.776Z,6.45
2017-12-27T09:12:56.043Z,3.85
2017-12-27T09:14:02.324Z,3.90
2017-12-27T09:15:08.631Z,4.05
2017-12-27T09:16:14.858Z,7.75
2017-12-27T09:17:21.437Z,3.95
2017-12-27T09:18:27.776Z,5.10
2017-12-27T09:19:34.129Z,5.18
2017-12-27T09:20:40.881Z,4.57
2017-12-27T09:21:48.302Z,3.83
2017-12-27T09:22:55.630Z,4.65
2017-12-27T09:24:02.156Z,4.15
2017-12-27T09:25:09.305Z,3.20
2017-12-27T09:26:15.614Z,3.40
2017-12-27T09:27:21.820Z,3.62
2017-12-27T09:28:28.813Z,4.07
2017-12-27T09:29:35.085Z,3.28
2017-12-27T09:30:41.365Z,4.28
2017-12-27T09:31:47.752Z,3.87
2017-12-27T09:32:55.709Z,6.72
2017-12-27T09:34:03.264Z,4.30
2017-12-27T09:35:10.337Z,4.25
2017-12-27T09:36:17.312Z,7.62
2017-12-27T09:37:24.192Z,5.97
2017-12-27T09:38:31.467Z,4.35
2017-12-27T09:39:38.122Z,6.60
2017-12-27T09:40:45.323Z,4.22
2017-12-27T09:41:51.915Z,5.93
2017-12-27T09:42:58.728Z,3.62
2017-12-27T09:44:06.140Z,3.47
2017-12-27T09:45:12.868Z,4.03
2017-12-27T09:46:20.601Z,4.10
2017-12-27T09:47:27.591Z,3.28
2017-12-27T09:48:35.652Z,4.65
2017-12-27T09:49:42.086Z,5.70
2017-12-27T09:50:48.523Z,4.43
2017-12-27T09:51:56.293Z,4.18
2017-12-27T09:53:03.271Z,4.30
2017-12-27T09:54:11.227Z,3.85
2017-12-27T09:55:18.424Z,4.30
2017-12-27T09:56:25.221Z,6.25
2017-12-27T09:57:33.866Z,5.03
2017-12-27T09:58:40.507Z,3.92
2017-12-27T09:59:48.420Z,4.30
2017-12-27T10:00:57.120Z,3.60
2017-12-27T10:02:04.074Z,3.83
2017-12-27T10:03:12.016Z,6.47
2017-12-27T10:04:18.529Z,4.45
2017-12-27T10:05:27.228Z,3.70
2017-12-27T10:06:35.315Z,5.28
2017-12-27T10:07:41.760Z,4.75
2017-12-27T10:08:49.404Z,4.65
2017-12-27T10:09:56.318Z,4.32
2017-12-27T10:11:03.280Z,4.03
2017-12-27T10:12:09.606Z,4.75
2017-12-27T10:13:16.486Z,4.47
2017-12-27T10:14:22.911Z,4.18
2017-12-27T10:15:30.017Z,4.37
2017-12-27T10:16:36.610Z,4.50
2017-12-27T10:17:43.172Z,5.07
2017-12-27T10:18:50.883Z,4.40
2017-12-27T10:19:58.035Z,4.90
2017-12-27T10:21:04.912Z,4.85
2017-12-27T10:22:11.823Z,6.25
2017-12-27T10:23:18.711Z,4.82
2017-12-27T10:24:25.654Z,4.53
2017-12-27T10:25:32.465Z,4.40
2017-12-27T10:26:40.061Z,5.03
2017-12-27T10:27:47.587Z,4.75
2017-12-27T10:28:56.246Z,4.70
2017-12-27T10:30:02.917Z,4.20
2017-12-27T10:31:10.322Z,4.40
2017-12-27T10:32:17.205Z,3.92
2017-12-27T10:33:24.596Z,5.35
2017-12-27T10:34:31.518Z,4.82
2017-12-27T10:35:39.212Z,6.00
2017-12-27T10:36:47.384Z,5.22
2017-12-27T10:37:53.847Z,4.87
2017-12-27T10:39:01.429Z,5.20
2017-12-27T10:40:09.517Z,4.50
2017-12-27T10:41:16.706Z,4.30
2017-12-27T10:42:24.788Z,4.57
2017-12-27T10:43:33.009Z,5.00
2017-12-27T10:44:40.348Z,6.30
2017-12-27T10:45:48.472Z,4.07
2017-12-27T10:46:55.440Z,6.18
2017-12-27T10:48:02.373Z,4.90
2017-12-27T10:49:10.786Z,5.07
2017-12-27T10:50:19.954Z,4.60
2017-12-27T10:51:29.182Z,4.22
2017-12-27T10:52:37.448Z,4.70
2017-12-27T10:53:43.607Z,5.45
2017-12-27T10:54:50.057Z,4.30
2017-12-27T10:55:57.887Z,6.43
2017-12-27T10:57:04.691Z,4.37
2017-12-27T10:58:12.095Z,4.72
2017-12-27T10:59:19.644Z,4.80
2017-12-27T11:00:27.092Z,4.30
2017-12-27T11:01:35.060Z,4.87
2017-12-27T11:02:42.354Z,4.95
2017-12-27T11:03:49.555Z,4.85
2017-12-27T11:04:56.318Z,4.72
2017-12-27T11:06:03.596Z,5.53
2017-12-27T11:07:10.048Z,4.68
2017-12-27T11:08:16.312Z,4.68
2017-12-27T11:09:22.521Z,4.60
2017-12-27T11:10:28.963Z,5.05
2017-12-27T11:11:35.313Z,4.80
2017-12-27T11:12:42.522Z,5.00
2017-12-27T11:13:49.781Z,4.32
2017-12-27T11:14:56.162Z,6.12
2017-12-27T11:16:02.595Z,5.80
2017-12-27T11:17:10.777Z,6.40
2017-12-27T11:18:17.833Z,5.25
2017-12-27T11:19:24.205Z,6.85
2017-12-27T11:20:30.585Z,5.20
2017-12-27T11:21:38.139Z,5.40
2017-12-27T11:22:44.312Z,4.53
2017-12-27T11:23:50.559Z,4.93
2017-12-27T11:24:56.929Z,4.95
2017-12-27T11:26:03.367Z,4.90
2017-12-27T11:27:09.573Z,5.30
2017-12-27T11:28:16.116Z,7.53
2017-12-27T11:29:22.931Z,6.32
2017-12-27T11:30:29.186Z,4.93
2017-12-27T11:31:35.424Z,5.65
2017-12-27T11:32:41.658Z,4.95
2017-12-27T11:33:48.313Z,4.80
2017-12-27T11:34:54.958Z,4.97
2017-12-27T11:36:01.338Z,4.75
2017-12-27T11:37:07.649Z,5.47
2017-12-27T11:38:13.861Z,4.43
2017-12-27T11:39:20.527Z,5.12
2017-12-27T11:40:26.761Z,5.45
2017-12-27T11:41:33.900Z,4.95
2017-12-27T11:42:40.396Z,5.03
2017-12-27T11:43:46.823Z,5.57
2017-12-27T11:44:53.244Z,5.22
2017-12-27T11:45:59.539Z,4.80
2017-12-27T11:47:05.824Z,7.43
2017-12-27T11:48:12.144Z,5.57
2017-12-27T11:49:18.561Z,5.75
2017-12-27T11:50:24.854Z,4.70
2017-12-27T11:51:31.324Z,6.03
2017-12-27T11:52:37.806Z,4.47
2017-12-27T11:53:44.161Z,4.70
2017-12-27T11:54:50.248Z,5.00
2017-12-27T11:55:56.517Z,4.75
2017-12-27T11:57:02.975Z,4.78
2017-12-27T11:58:15.931Z,5.22
2017-12-27T11:59:22.714Z,5.10
2017-12-27T12:00:29.209Z,4.70
2017-12-27T12:01:37.299Z,5.00
2017-12-27T12:02:45.295Z,5.37
2017-12-27T12:03:51.721Z,4.80
2017-12-27T12:04:58.024Z,5.90
2017-12-27T12:06:04.907Z,5.25
2017-12-27T12:07:12.140Z,4.85
2017-12-27T12:08:18.444Z,5.43
2017-12-27T12:09:25.036Z,4.75
2017-12-27T12:10:32.192Z,5.35
2017-12-27T12:11:45.328Z,5.03
2017-12-27T12:12:51.584Z,5.05
2017-12-27T12:13:57.970Z,4.30
2017-12-27T12:15:04.626Z,5.65
2017-12-27T12:16:10.930Z,5.05
2017-12-27T12:17:18.470Z,5.40
2017-12-27T12:18:25.426Z,6.72
2017-12-27T12:19:31.866Z,4.55
2017-12-27T12:20:38.246Z,4.90
2017-12-27T12:21:44.605Z,4.87
2017-12-27T12:22:50.936Z,5.60
2017-12-27T12:23:57.488Z,5.87
2017-12-27T12:25:04.332Z,4.55
2017-12-27T12:26:10.614Z,5.03
2017-12-27T12:27:17.052Z,6.10
2017-12-27T12:28:23.427Z,7.30
2017-12-27T12:29:29.785Z,5.57
2017-12-27T12:30:36.680Z,5.80
2017-12-27T12:31:44.926Z,5.70
2017-12-27T12:32:51.373Z,5.35
2017-12-27T12:33:57.626Z,5.10
2017-12-27T12:35:04.081Z,5.72
2017-12-27T12:36:10.514Z,7.90
2017-12-27T12:37:16.888Z,7.55
2017-12-27T12:38:23.593Z,5.18
2017-12-27T12:39:29.918Z,5.80
2017-12-27T12:40:36.865Z,6.15
2017-12-27T12:41:43.315Z,5.40
2017-12-27T12:42:50.675Z,6.07
2017-12-27T12:43:56.954Z,6.12
2017-12-27T12:45:08.275Z,5.03
2017-12-27T12:46:14.673Z,5.15
2017-12-27T12:47:20.929Z,5.40
2017-12-27T12:48:27.253Z,5.80
2017-12-27T12:49:33.636Z,5.30
2017-12-27T12:50:40.245Z,6.75
2017-12-27T12:51:47.150Z,5.65
2017-12-27T12:52:53.519Z,5.07
2017-12-27T12:53:59.797Z,6.37
2017-12-27T12:55:06.310Z,6.18
2017-12-27T12:56:12.727Z,7.05
2017-12-27T12:57:22.078Z,5.60
2017-12-27T12:58:28.446Z,6.10
2017-12-27T12:59:34.968Z,5.87
2017-12-27T13:00:42.120Z,7.22
2017-12-27T13:01:48.491Z,6.87
2017-12-27T13:02:58.426Z,7.40
2017-12-27T13:04:05.971Z,7.93
2017-12-27T13:05:12.520Z,6.07
2017-12-27T13:06:19.101Z,5.72
2017-12-27T13:07:25.468Z,7.43
2017-12-27T13:08:31.795Z,6.30
2017-12-27T13:09:38.017Z,11.05
2017-12-27T13:10:44.327Z,7.40
2017-12-27T13:11:50.177Z,7.47
2017-12-27T13:12:57.435Z,6.20
2017-12-27T13:14:03.645Z,8.05
2017-12-27T13:15:12.832Z,7.03
2017-12-27T13:16:19.354Z,7.57
2017-12-27T13:17:26.596Z,8.80
2017-12-27T13:18:32.987Z,9.88
2017-12-27T13:19:39.224Z,10.88
2017-12-27T13:20:45.907Z,8.02
2017-12-27T13:21:52.535Z,7.30
2017-12-27T13:22:58.821Z,9.32
2017-12-27T13:24:05.074Z,8.35
2017-12-27T13:25:11.577Z,7.00
2017-12-27T13:26:18.882Z,8.02
2017-12-27T13:27:24.917Z,7.65
2017-12-27T13:28:31.001Z,8.05
2017-12-27T13:29:38.242Z,6.75
2017-12-27T13:30:45.230Z,8.68
2017-12-27T13:31:51.618Z,7.80
2017-12-27T13:32:57.791Z,8.02
2017-12-27T13:34:04.293Z,7.60
2017-12-27T13:35:11.956Z,8.32
2017-12-27T13:36:18.207Z,8.20
2017-12-27T13:37:24.451Z,7.10
2017-12-27T13:38:30.563Z,8.05
2017-12-27T13:39:37.057Z,7.87
2017-12-27T13:40:43.660Z,7.30
2017-12-27T13:41:50.023Z,7.10
2017-12-27T13:42:56.271Z,8.15
2017-12-27T13:44:02.534Z,7.55
2017-12-27T13:45:08.940Z,7.50
2017-12-27T13:46:15.463Z,9.05
2017-12-27T13:47:22.199Z,7.82
2017-12-27T13:48:28.501Z,7.22
2017-12-27T13:49:35.410Z,7.72
2017-12-27T13:50:41.858Z,9.07
2017-12-27T13:51:48.612Z,7.60
2017-12-27T13:52:55.120Z,8.05
2017-12-27T13:54:01.569Z,6.15
2017-12-27T13:55:09.689Z,7.05
2017-12-27T13:56:15.979Z,7.37
2017-12-27T13:57:22.426Z,6.82
2017-12-27T13:58:28.732Z,6.50
2017-12-27T13:59:34.962Z,6.78
2017-12-27T14:00:41.484Z,7.78
2017-12-27T14:01:47.758Z,6.75
2017-12-27T14:02:54.497Z,7.07
2017-12-27T14:04:00.867Z,8.20
2017-12-27T14:05:07.435Z,6.28
2017-12-27T14:06:13.656Z,6.90
2017-12-27T14:07:20.014Z,8.18
2017-12-27T14:08:26.531Z,6.75
2017-12-27T14:09:32.866Z,6.75
2017-12-27T14:10:39.329Z,6.75
2017-12-27T14:11:46.099Z,6.95
2017-12-27T14:12:53.118Z,6.05
2017-12-27T14:13:59.692Z,7.22
2017-12-27T14:15:06.047Z,7.28
2017-12-27T14:16:12.325Z,7.10
2017-12-27T14:17:19.218Z,8.43
2017-12-27T14:18:25.688Z,8.18
2017-12-27T14:19:31.987Z,7.45
2017-12-27T14:20:39.034Z,7.45
2017-12-27T14:21:46.465Z,6.40
2017-12-27T14:22:52.738Z,8.82
2017-12-27T14:23:59.122Z,9.10
2017-12-27T14:25:05.538Z,8.57
2017-12-27T14:26:11.785Z,6.95
2017-12-27T14:27:18.006Z,8.32
2017-12-27T14:28:24.681Z,6.40
2017-12-27T14:29:30.967Z,7.25
2017-12-27T14:30:37.434Z,7.50
2017-12-27T14:31:44.499Z,6.90
2017-12-27T14:32:50.845Z,8.23
2017-12-27T14:33:57.115Z,7.45
2017-12-27T14:35:03.678Z,6.40
2017-12-27T14:36:10.074Z,8.32
2017-12-27T14:37:16.415Z,6.87
2017-12-27T14:38:22.692Z,10.55
2017-12-27T14:39:29.400Z,17.00
2017-12-27T14:40:35.810Z,16.92
2017-12-27T14:41:42.331Z,16.05
2017-12-27T14:42:48.830Z,13.57
2017-12-27T14:43:55.163Z,14.00
2017-12-27T14:45:01.540Z,17.33
2017-12-27T14:46:08.110Z,16.77
2017-12-27T14:47:14.477Z,13.62
2017-12-27T14:48:22.336Z,15.18
2017-12-27T14:49:28.976Z,16.08
2017-12-27T14:50:35.604Z,15.70
2017-12-27T14:51:42.892Z,14.48